logo
Search for airport 
image banner adimage banner adimage banner ad
image banner ad

EDAW - Roitzschjora

Located in Bad Dueben, Germany

ICAO - EDAW, IATA -

Data provided by Airmate  

General information

Coordinates: N51°34'36" E12°29'45"
Elevation is 289 feet MSL.
Magnetic variation is 3.0000° East
View others Airports in Saxony

Operational data

Special qualification required
Current time UTC:
Current local time:
Weather at : EDDP - Leipzig/Halle ( 25 km )
METAR: EDDP 280050Z AUTO 26005KT CAVOK 15/14 Q1015
TAF: TAF EDDP 272300Z 2800/2824 22005KT 9999 BKN030 TEMPO 2800/2807 4000 RA BKN014 PROB40 TEMPO 2800/2801 TSRA BKN015CB BECMG 2805/2808 27010KT TEMPO 2812/2816 SHRA BKN030CB BECMG 2816/2818 23004KT
View NOTAMs / SUP AIP / TFR affecting this airport [VIEW]
Communications frequencies: [VIEW]

Runways:

RWY identifierQFULength (ft)Width (ft)SurfaceLDA (ft)
1098°3937131GRASS3937
28278°3937131GRASS3937

Airport contact information

Address: Bad Dueben Germany

Satellite view of EDAW